createdAt,value
2023-05-13T00:00:17.855Z,13.10
2023-05-13T00:02:44.644Z,13.10
2023-05-13T00:05:11.458Z,13.00
2023-05-13T00:07:38.233Z,13.10
2023-05-13T00:10:05.177Z,13.10
2023-05-13T00:12:31.877Z,13.10
2023-05-13T00:14:58.453Z,13.10
2023-05-13T00:17:25.106Z,13.00
2023-05-13T00:19:51.735Z,13.00
2023-05-13T00:22:18.357Z,12.90
2023-05-13T00:24:45.002Z,12.90
2023-05-13T00:27:11.713Z,12.90
2023-05-13T00:29:38.364Z,12.80
2023-05-13T00:32:06.075Z,12.80
2023-05-13T00:34:32.776Z,12.80
2023-05-13T00:36:59.573Z,12.80
2023-05-13T00:39:26.242Z,12.80
2023-05-13T00:41:52.883Z,12.80
2023-05-13T00:44:19.632Z,12.80
2023-05-13T00:46:46.596Z,12.80
2023-05-13T00:49:13.289Z,12.80
2023-05-13T00:51:39.903Z,12.80
2023-05-13T00:54:06.494Z,12.70
2023-05-13T00:56:33.063Z,12.80
2023-05-13T00:58:59.700Z,12.70
2023-05-13T01:01:58.202Z,12.80
2023-05-13T01:04:33.146Z,12.80
2023-05-13T01:07:39.235Z,12.70
2023-05-13T01:10:17.919Z,12.80
2023-05-13T01:12:47.198Z,12.80
2023-05-13T01:15:23.708Z,12.70
2023-05-13T01:18:19.384Z,12.70
2023-05-13T01:20:46.317Z,12.70
2023-05-13T01:23:13.270Z,12.70
2023-05-13T01:25:40.533Z,12.70
2023-05-13T01:28:08.681Z,12.70
2023-05-13T01:30:36.303Z,12.80
2023-05-13T01:33:03.555Z,12.80
2023-05-13T01:35:32.051Z,12.80
2023-05-13T01:38:00.036Z,12.80
2023-05-13T01:40:32.789Z,12.70
2023-05-13T01:43:00.474Z,12.70
2023-05-13T01:45:30.510Z,12.80
2023-05-13T01:47:57.428Z,12.80
2023-05-13T01:50:24.571Z,12.80
2023-05-13T01:52:51.466Z,12.80
2023-05-13T01:55:18.653Z,12.80
2023-05-13T01:57:45.263Z,12.90
2023-05-13T02:00:12.415Z,12.90
2023-05-13T02:02:39.334Z,12.90
2023-05-13T02:05:06.250Z,12.90
2023-05-13T02:07:34.557Z,12.90
2023-05-13T02:10:01.147Z,12.90
2023-05-13T02:12:27.785Z,12.90
2023-05-13T02:14:55.340Z,12.90
2023-05-13T02:17:22.514Z,12.90
2023-05-13T02:19:49.395Z,12.90
2023-05-13T02:22:16.402Z,12.90
2023-05-13T02:24:43.114Z,12.80
2023-05-13T02:27:12.446Z,12.70
2023-05-13T02:29:39.230Z,12.80
2023-05-13T02:32:06.381Z,12.90
2023-05-13T02:34:33.363Z,12.80
2023-05-13T02:36:59.993Z,12.80
2023-05-13T02:39:26.908Z,12.80
2023-05-13T02:41:53.571Z,12.80
2023-05-13T02:44:20.169Z,12.70
2023-05-13T02:46:46.850Z,12.70
2023-05-13T02:49:14.105Z,12.70
2023-05-13T02:51:40.790Z,12.70
2023-05-13T02:54:07.434Z,12.70
2023-05-13T02:56:34.180Z,12.70
2023-05-13T02:59:00.903Z,12.70
2023-05-13T03:01:27.614Z,12.70
2023-05-13T03:03:54.346Z,12.60
2023-05-13T03:06:20.993Z,12.70
2023-05-13T03:08:47.561Z,12.60
2023-05-13T03:11:14.263Z,12.60
2023-05-13T03:13:40.912Z,12.50
2023-05-13T03:16:07.513Z,12.50
2023-05-13T03:18:35.869Z,12.60
2023-05-13T03:21:02.888Z,12.60
2023-05-13T03:23:29.514Z,12.60
2023-05-13T03:25:56.143Z,12.50
2023-05-13T03:28:22.781Z,12.50
2023-05-13T03:30:49.404Z,12.50
2023-05-13T03:33:16.059Z,12.50
2023-05-13T03:35:42.671Z,12.50
2023-05-13T03:38:09.386Z,12.30
2023-05-13T03:40:36.310Z,12.40
2023-05-13T03:43:03.080Z,12.40
2023-05-13T03:45:31.357Z,12.40
2023-05-13T03:47:58.101Z,12.50
2023-05-13T03:50:25.047Z,12.40
2023-05-13T03:52:51.804Z,12.20
2023-05-13T03:55:18.470Z,12.30
2023-05-13T03:57:49.320Z,12.40
2023-05-13T04:00:16.349Z,12.40
2023-05-13T04:02:43.652Z,12.30
2023-05-13T04:05:10.893Z,12.30
2023-05-13T04:07:37.571Z,12.40
2023-05-13T04:10:04.550Z,12.30
2023-05-13T04:12:33.464Z,12.30
2023-05-13T04:15:00.208Z,12.40
2023-05-13T04:17:26.969Z,12.40
2023-05-13T04:19:54.661Z,12.50
2023-05-13T04:22:21.895Z,12.50
2023-05-13T04:24:51.878Z,12.50
2023-05-13T04:27:18.598Z,12.50
2023-05-13T04:29:45.248Z,12.60
2023-05-13T04:32:15.826Z,12.60
2023-05-13T04:34:42.686Z,12.50
2023-05-13T04:37:09.408Z,12.50
2023-05-13T04:39:36.026Z,12.50
2023-05-13T04:42:02.706Z,12.60
2023-05-13T04:44:29.337Z,12.60
2023-05-13T04:46:55.918Z,12.60
2023-05-13T04:49:22.524Z,12.60
2023-05-13T04:51:49.428Z,12.60
2023-05-13T04:54:16.579Z,12.60
2023-05-13T04:56:43.223Z,12.70
2023-05-13T04:59:09.985Z,12.70
2023-05-13T05:01:36.992Z,12.70
2023-05-13T05:04:03.780Z,12.70
2023-05-13T05:06:31.218Z,12.70
2023-05-13T05:08:58.330Z,12.70
2023-05-13T05:11:25.071Z,12.70
2023-05-13T05:13:51.986Z,12.80
2023-05-13T05:16:18.571Z,12.80
2023-05-13T05:18:45.221Z,12.80
2023-05-13T05:21:13.278Z,12.70
2023-05-13T05:23:40.120Z,12.80
2023-05-13T05:26:11.534Z,12.80
2023-05-13T05:28:40.125Z,12.80
2023-05-13T05:31:07.187Z,12.90
2023-05-13T05:33:33.924Z,12.90
2023-05-13T05:36:00.672Z,12.90
2023-05-13T05:38:27.486Z,12.90
2023-05-13T05:40:54.148Z,12.90
2023-05-13T05:43:20.842Z,12.90
2023-05-13T05:45:47.456Z,12.90
2023-05-13T05:48:14.202Z,12.90
2023-05-13T05:50:41.533Z,12.90
2023-05-13T05:53:08.138Z,12.90
2023-05-13T05:55:34.840Z,12.90
2023-05-13T05:58:05.322Z,12.90
2023-05-13T06:00:33.216Z,12.80
2023-05-13T06:03:00.179Z,12.80
2023-05-13T06:05:27.217Z,12.80
2023-05-13T06:07:53.873Z,12.90
2023-05-13T06:10:20.668Z,13.00
2023-05-13T06:12:47.650Z,13.00
2023-05-13T06:15:14.274Z,13.10
2023-05-13T06:17:41.072Z,13.10
2023-05-13T06:20:07.973Z,13.10
2023-05-13T06:22:34.719Z,13.20
2023-05-13T06:25:01.419Z,13.20
2023-05-13T06:27:28.034Z,13.20
2023-05-13T06:29:54.713Z,13.20
2023-05-13T06:32:21.360Z,13.20
2023-05-13T06:34:48.379Z,13.30
2023-05-13T06:37:15.379Z,13.30
2023-05-13T06:39:41.995Z,13.30
2023-05-13T06:42:08.823Z,13.40
2023-05-13T06:44:35.728Z,13.40
2023-05-13T06:47:05.593Z,13.40
2023-05-13T06:49:35.145Z,13.40
2023-05-13T06:52:01.766Z,13.50
2023-05-13T06:54:28.581Z,13.50
2023-05-13T06:56:55.570Z,13.50
2023-05-13T06:59:22.755Z,13.50
2023-05-13T07:01:49.535Z,13.50
2023-05-13T07:04:16.364Z,13.60
2023-05-13T07:06:43.080Z,13.60
2023-05-13T07:09:09.972Z,13.60
2023-05-13T07:11:37.211Z,13.60
2023-05-13T07:14:03.820Z,13.60
2023-05-13T07:16:30.457Z,13.70
2023-05-13T07:18:57.107Z,13.70
2023-05-13T07:21:23.733Z,13.70
2023-05-13T07:23:50.385Z,13.70
2023-05-13T07:26:17.003Z,13.80
2023-05-13T07:28:43.679Z,13.80
2023-05-13T07:31:10.592Z,13.80
2023-05-13T07:33:37.255Z,13.90
2023-05-13T07:36:04.196Z,13.90
2023-05-13T07:38:30.804Z,13.90
2023-05-13T07:40:57.494Z,13.90
2023-05-13T07:43:24.228Z,13.90
2023-05-13T07:45:51.343Z,13.90
2023-05-13T07:48:19.182Z,14.00
2023-05-13T07:50:47.592Z,14.10
2023-05-13T07:53:14.370Z,14.20
2023-05-13T07:55:41.364Z,14.10
2023-05-13T07:58:07.978Z,14.20
2023-05-13T08:00:35.188Z,14.20
2023-05-13T08:03:01.975Z,14.40
2023-05-13T08:05:28.637Z,14.40
2023-05-13T08:07:55.212Z,14.40
2023-05-13T08:10:21.837Z,14.30
2023-05-13T08:12:53.408Z,14.40
2023-05-13T08:15:20.108Z,14.40
2023-05-13T08:17:46.790Z,14.50
2023-05-13T08:20:15.084Z,14.50
2023-05-13T08:22:42.836Z,14.50
2023-05-13T08:25:11.257Z,14.40
2023-05-13T08:27:37.905Z,14.50
2023-05-13T08:30:05.772Z,14.40
2023-05-13T08:32:32.793Z,14.40
2023-05-13T08:35:01.156Z,14.40
2023-05-13T08:37:28.311Z,14.50
2023-05-13T08:39:56.452Z,14.40
2023-05-13T08:42:23.561Z,14.50
2023-05-13T08:44:51.991Z,14.50
2023-05-13T08:47:32.545Z,14.50
2023-05-13T08:50:00.623Z,14.50
2023-05-13T08:52:27.860Z,14.50
2023-05-13T08:54:56.384Z,14.60
2023-05-13T08:57:23.019Z,14.60
2023-05-13T08:59:49.573Z,14.50
2023-05-13T09:02:16.340Z,14.60
2023-05-13T09:04:44.071Z,14.70
2023-05-13T09:07:11.499Z,14.80
2023-05-13T09:09:38.163Z,14.70
2023-05-13T09:12:06.516Z,14.80
2023-05-13T09:14:33.220Z,14.80
2023-05-13T09:17:01.903Z,15.00
2023-05-13T09:19:28.778Z,15.00
2023-05-13T09:21:56.118Z,15.00
2023-05-13T09:24:23.620Z,15.00
2023-05-13T09:26:51.571Z,15.00
2023-05-13T09:29:31.666Z,15.00
2023-05-13T09:32:00.001Z,15.10
2023-05-13T09:34:30.168Z,15.10
2023-05-13T09:37:08.066Z,15.00
2023-05-13T09:39:43.440Z,14.90
2023-05-13T09:42:17.620Z,14.90
2023-05-13T09:44:48.806Z,15.10
2023-05-13T09:47:16.946Z,15.20
2023-05-13T09:49:45.428Z,15.30
2023-05-13T09:52:16.286Z,15.40
2023-05-13T09:54:44.463Z,15.40
2023-05-13T09:57:13.772Z,15.50
2023-05-13T09:59:40.598Z,15.60
2023-05-13T10:02:08.467Z,15.70
2023-05-13T10:04:35.236Z,15.70
2023-05-13T10:07:03.690Z,15.70
2023-05-13T10:09:37.765Z,15.80
2023-05-13T10:12:07.818Z,15.80
2023-05-13T10:14:37.160Z,16.00
2023-05-13T10:17:05.284Z,16.10
2023-05-13T10:19:32.960Z,16.20
2023-05-13T10:22:00.297Z,16.30
2023-05-13T10:24:28.821Z,16.30
2023-05-13T10:26:57.644Z,16.30
2023-05-13T10:29:25.432Z,16.30
2023-05-13T10:31:53.283Z,16.20
2023-05-13T10:34:21.078Z,16.30
2023-05-13T10:36:58.903Z,16.30
2023-05-13T10:40:10.735Z,16.30
2023-05-13T10:42:42.516Z,16.40
2023-05-13T10:45:10.289Z,16.30
2023-05-13T10:47:37.945Z,16.40
2023-05-13T10:50:06.406Z,16.30
2023-05-13T10:52:49.345Z,16.00
2023-05-13T10:55:19.173Z,15.90
2023-05-13T10:58:31.139Z,15.90
2023-05-13T11:01:15.395Z,16.00
2023-05-13T11:03:49.988Z,16.00
2023-05-13T11:06:19.406Z,16.00
2023-05-13T11:08:48.095Z,15.80
2023-05-13T11:11:26.397Z,16.00
2023-05-13T11:14:07.747Z,16.10
2023-05-13T11:16:35.960Z,16.00
2023-05-13T11:19:04.294Z,15.90
2023-05-13T11:21:33.187Z,15.90
2023-05-13T11:24:06.102Z,15.90
2023-05-13T11:26:46.226Z,15.90
2023-05-13T11:29:13.697Z,16.00
2023-05-13T11:31:50.182Z,16.00
2023-05-13T11:34:18.190Z,16.10
2023-05-13T11:36:46.979Z,16.00
2023-05-13T11:39:20.252Z,16.10
2023-05-13T11:41:50.107Z,16.10
2023-05-13T11:44:18.943Z,16.20
2023-05-13T11:47:02.791Z,16.20
2023-05-13T11:49:33.437Z,16.20
2023-05-13T11:52:11.447Z,16.30
2023-05-13T11:54:44.859Z,16.30
2023-05-13T11:57:17.490Z,16.10
2023-05-13T12:00:00.872Z,16.10
2023-05-13T12:02:34.820Z,16.10
2023-05-13T12:05:04.298Z,16.20
2023-05-13T12:07:31.552Z,16.30
2023-05-13T12:10:01.366Z,16.30
2023-05-13T12:12:29.514Z,16.30
2023-05-13T12:14:59.946Z,16.30
2023-05-13T12:17:26.927Z,16.40
2023-05-13T12:20:12.777Z,16.30
2023-05-13T12:22:42.501Z,16.50
2023-05-13T12:25:37.072Z,16.70
2023-05-13T12:28:12.102Z,16.80
2023-05-13T12:30:43.414Z,17.00
2023-05-13T12:33:15.126Z,17.10
2023-05-13T12:35:42.275Z,17.30
2023-05-13T12:38:13.653Z,17.30
2023-05-13T12:40:40.240Z,17.10
2023-05-13T12:43:06.938Z,17.10
2023-05-13T12:45:35.093Z,17.00
2023-05-13T12:48:02.029Z,17.00
2023-05-13T12:50:28.703Z,17.10
2023-05-13T12:52:57.713Z,17.20
2023-05-13T12:55:24.634Z,17.30
2023-05-13T12:57:56.356Z,17.40
2023-05-13T13:00:24.433Z,17.50
2023-05-13T13:02:53.486Z,17.50
2023-05-13T13:05:24.783Z,17.50
2023-05-13T13:07:51.746Z,17.50
2023-05-13T13:10:18.485Z,17.50
2023-05-13T13:12:45.205Z,17.60
2023-05-13T13:15:12.293Z,17.70
2023-05-13T13:17:38.984Z,17.70
2023-05-13T13:20:06.995Z,17.70
2023-05-13T13:22:36.826Z,17.70
2023-05-13T13:25:05.440Z,17.80
2023-05-13T13:27:33.474Z,17.70
2023-05-13T13:30:00.179Z,17.80
2023-05-13T13:32:27.111Z,17.40
2023-05-13T13:34:53.822Z,17.50
2023-05-13T13:37:20.513Z,17.60
2023-05-13T13:39:47.153Z,17.60
2023-05-13T13:42:13.910Z,17.40
2023-05-13T13:44:40.525Z,17.10
2023-05-13T13:47:07.112Z,17.00
2023-05-13T13:49:33.680Z,17.00
2023-05-13T13:52:00.335Z,17.00
2023-05-13T13:54:27.108Z,17.10
2023-05-13T13:56:53.748Z,17.10
2023-05-13T13:59:20.421Z,16.90
2023-05-13T14:01:47.087Z,16.90
2023-05-13T14:04:16.478Z,16.70
2023-05-13T14:06:44.426Z,16.80
2023-05-13T14:09:11.003Z,16.80
2023-05-13T14:11:37.683Z,16.90
2023-05-13T14:14:04.624Z,16.90
2023-05-13T14:16:31.339Z,16.90
2023-05-13T14:18:58.064Z,17.00
2023-05-13T14:21:24.866Z,16.90
2023-05-13T14:23:51.518Z,17.10
2023-05-13T14:26:18.195Z,17.10
2023-05-13T14:28:45.521Z,17.10
2023-05-13T14:31:12.428Z,17.00
2023-05-13T14:33:39.149Z,16.90
2023-05-13T14:36:06.308Z,16.90
2023-05-13T14:38:33.045Z,17.00
2023-05-13T14:40:59.719Z,16.90
2023-05-13T14:43:26.545Z,16.90
2023-05-13T14:45:53.205Z,16.80
2023-05-13T14:48:19.971Z,16.70
2023-05-13T14:50:46.911Z,16.70
2023-05-13T14:53:13.673Z,16.70
2023-05-13T14:55:40.395Z,16.70
2023-05-13T14:58:09.837Z,16.60
2023-05-13T15:00:41.332Z,16.70
2023-05-13T15:03:08.228Z,16.70
2023-05-13T15:05:34.958Z,16.70
2023-05-13T15:08:01.546Z,16.70
2023-05-13T15:10:28.286Z,16.70
2023-05-13T15:12:55.060Z,16.60
2023-05-13T15:15:23.308Z,16.80
2023-05-13T15:17:50.044Z,16.70
2023-05-13T15:20:16.784Z,16.70
2023-05-13T15:22:43.844Z,16.80
2023-05-13T15:25:10.731Z,16.70
2023-05-13T15:27:37.324Z,16.70
2023-05-13T15:30:04.131Z,16.70
2023-05-13T15:32:30.757Z,16.70
2023-05-13T15:34:57.350Z,16.80
2023-05-13T15:37:24.099Z,16.70
2023-05-13T15:39:50.783Z,16.60
2023-05-13T15:42:17.469Z,16.70
2023-05-13T15:44:45.453Z,16.70
2023-05-13T15:47:12.460Z,16.60
2023-05-13T15:49:39.203Z,16.70
2023-05-13T15:52:07.140Z,16.80
2023-05-13T15:54:34.363Z,16.80
2023-05-13T15:57:00.994Z,16.60
2023-05-13T15:59:27.680Z,16.40
2023-05-13T16:01:54.323Z,16.30
2023-05-13T16:04:21.005Z,16.30
2023-05-13T16:06:47.625Z,16.30
2023-05-13T16:09:14.258Z,16.20
2023-05-13T16:11:40.829Z,16.20
2023-05-13T16:14:08.541Z,16.20
2023-05-13T16:16:35.294Z,16.10
2023-05-13T16:19:03.511Z,16.10
2023-05-13T16:21:31.550Z,16.10
2023-05-13T16:23:58.234Z,16.00
2023-05-13T16:26:24.855Z,16.10
2023-05-13T16:28:51.825Z,16.10
2023-05-13T16:31:18.490Z,16.10
2023-05-13T16:33:45.145Z,16.10
2023-05-13T16:36:11.902Z,16.00
2023-05-13T16:38:41.232Z,16.00
2023-05-13T16:41:08.146Z,15.90
2023-05-13T16:43:34.784Z,15.90
2023-05-13T16:46:01.426Z,15.70
2023-05-13T16:48:28.223Z,15.80
2023-05-13T16:50:56.133Z,15.70
2023-05-13T16:53:22.848Z,15.60
2023-05-13T16:55:50.220Z,15.70
2023-05-13T16:58:17.250Z,15.80
2023-05-13T17:00:44.212Z,15.80
2023-05-13T17:03:13.125Z,15.90
2023-05-13T17:05:40.079Z,15.80
2023-05-13T17:08:06.676Z,15.80
2023-05-13T17:10:33.390Z,15.80
2023-05-13T17:12:59.988Z,15.80
2023-05-13T17:15:26.757Z,15.80
2023-05-13T17:17:53.432Z,15.90
2023-05-13T17:20:20.507Z,15.80
2023-05-13T17:22:47.635Z,15.80
2023-05-13T17:25:14.725Z,15.70
2023-05-13T17:27:41.436Z,15.70
2023-05-13T17:30:08.748Z,15.60
2023-05-13T17:32:35.701Z,15.60
2023-05-13T17:35:04.062Z,15.60
2023-05-13T17:37:30.673Z,15.60
2023-05-13T17:40:00.497Z,15.60
2023-05-13T17:42:28.853Z,15.70
2023-05-13T17:44:55.708Z,15.60
2023-05-13T17:47:22.351Z,15.60
2023-05-13T17:49:48.939Z,15.60
2023-05-13T17:52:15.596Z,15.50
2023-05-13T17:54:42.204Z,15.40
2023-05-13T17:57:10.892Z,15.40
2023-05-13T17:59:37.681Z,15.40
2023-05-13T18:02:04.492Z,15.50
2023-05-13T18:04:31.236Z,15.50
2023-05-13T18:06:57.890Z,15.50
2023-05-13T18:09:24.498Z,15.50
2023-05-13T18:11:51.092Z,15.50
2023-05-13T18:14:17.659Z,15.40
2023-05-13T18:16:44.432Z,15.40
2023-05-13T18:19:11.051Z,15.40
2023-05-13T18:21:37.671Z,15.30
2023-05-13T18:24:04.628Z,15.30
2023-05-13T18:26:31.286Z,15.30
2023-05-13T18:28:57.876Z,15.30
2023-05-13T18:31:24.671Z,15.30
2023-05-13T18:33:51.251Z,15.20
2023-05-13T18:36:17.854Z,15.20
2023-05-13T18:38:45.867Z,15.30
2023-05-13T18:41:12.500Z,15.30
2023-05-13T18:43:39.290Z,15.20
2023-05-13T18:46:06.047Z,15.10
2023-05-13T18:48:32.725Z,15.10
2023-05-13T18:50:59.353Z,15.10
2023-05-13T18:53:25.924Z,15.10
2023-05-13T18:55:52.739Z,15.20
2023-05-13T18:58:19.376Z,15.20
2023-05-13T19:00:46.156Z,15.20
2023-05-13T19:03:12.891Z,15.20
2023-05-13T19:05:39.540Z,15.20
2023-05-13T19:08:07.883Z,15.10
2023-05-13T19:10:39.458Z,15.10
2023-05-13T19:13:07.081Z,15.00
2023-05-13T19:15:34.092Z,14.90
2023-05-13T19:18:00.853Z,14.80
2023-05-13T19:20:27.716Z,14.90
2023-05-13T19:22:54.392Z,14.90
2023-05-13T19:25:21.016Z,14.90
2023-05-13T19:27:49.289Z,14.90
2023-05-13T19:30:16.213Z,14.90
2023-05-13T19:32:43.647Z,14.80
2023-05-13T19:35:11.325Z,14.80
2023-05-13T19:37:37.925Z,14.80
2023-05-13T19:40:05.335Z,14.80
2023-05-13T19:42:32.068Z,14.80
2023-05-13T19:44:58.704Z,14.80
2023-05-13T19:47:26.807Z,14.70
2023-05-13T19:49:53.508Z,14.80
2023-05-13T19:52:20.178Z,14.70
2023-05-13T19:54:46.757Z,14.80
2023-05-13T19:57:13.322Z,14.70
2023-05-13T19:59:41.556Z,14.80
2023-05-13T20:02:08.615Z,14.80
2023-05-13T20:04:35.748Z,14.70
2023-05-13T20:07:02.390Z,14.80
2023-05-13T20:09:29.366Z,14.80
2023-05-13T20:11:55.987Z,14.80
2023-05-13T20:14:23.197Z,14.90
2023-05-13T20:16:49.818Z,14.90
2023-05-13T20:19:16.417Z,14.90
2023-05-13T20:21:43.044Z,14.90
2023-05-13T20:24:09.623Z,14.80
2023-05-13T20:26:36.579Z,14.70
2023-05-13T20:29:03.609Z,14.70
2023-05-13T20:31:30.459Z,14.70
2023-05-13T20:33:57.873Z,14.70
2023-05-13T20:36:24.511Z,14.60
2023-05-13T20:38:51.059Z,14.60
2023-05-13T20:41:18.070Z,14.60
2023-05-13T20:43:44.656Z,14.60
2023-05-13T20:46:16.559Z,14.60
2023-05-13T20:48:43.349Z,14.60
2023-05-13T20:51:10.126Z,14.60
2023-05-13T20:53:37.231Z,14.70
2023-05-13T20:56:04.477Z,14.70
2023-05-13T20:58:31.175Z,14.70
2023-05-13T21:00:57.882Z,14.70
2023-05-13T21:03:24.795Z,14.70
2023-05-13T21:05:51.367Z,14.60
2023-05-13T21:08:17.993Z,14.60
2023-05-13T21:10:44.582Z,14.60
2023-05-13T21:13:11.331Z,14.50
2023-05-13T21:15:37.975Z,14.40
2023-05-13T21:18:04.778Z,14.30
2023-05-13T21:20:32.683Z,14.30
2023-05-13T21:23:00.808Z,14.10
2023-05-13T21:25:27.529Z,14.30
2023-05-13T21:27:54.269Z,14.30
2023-05-13T21:30:21.106Z,14.20
2023-05-13T21:32:47.901Z,14.20
2023-05-13T21:35:14.615Z,14.20
2023-05-13T21:37:41.243Z,14.30
2023-05-13T21:40:08.788Z,14.30
2023-05-13T21:42:35.513Z,14.30
2023-05-13T21:45:02.584Z,14.40
2023-05-13T21:47:29.433Z,14.30
2023-05-13T21:49:56.282Z,14.30
2023-05-13T21:52:22.846Z,14.20
2023-05-13T21:54:49.448Z,14.20
2023-05-13T21:57:16.566Z,14.20
2023-05-13T21:59:43.238Z,14.20
2023-05-13T22:02:09.989Z,14.20
2023-05-13T22:04:36.758Z,14.10
2023-05-13T22:07:03.347Z,14.00
2023-05-13T22:09:29.927Z,14.00
2023-05-13T22:11:56.537Z,14.00
2023-05-13T22:14:23.164Z,14.10
2023-05-13T22:17:00.900Z,14.10
2023-05-13T22:19:35.006Z,14.10
2023-05-13T22:22:01.687Z,14.10
2023-05-13T22:24:28.276Z,14.10
2023-05-13T22:26:54.902Z,14.10
2023-05-13T22:29:21.543Z,14.10
2023-05-13T22:31:48.165Z,14.00
2023-05-13T22:34:14.804Z,14.00
2023-05-13T22:36:43.833Z,13.90
2023-05-13T22:39:12.148Z,14.00
2023-05-13T22:41:38.765Z,14.00
2023-05-13T22:44:05.490Z,14.10
2023-05-13T22:46:32.361Z,14.10
2023-05-13T22:48:59.109Z,14.00
2023-05-13T22:51:25.780Z,14.00
2023-05-13T22:53:52.544Z,14.10
2023-05-13T22:56:19.187Z,14.10
2023-05-13T22:58:46.029Z,14.10
2023-05-13T23:01:13.007Z,14.00
2023-05-13T23:03:39.648Z,14.10
2023-05-13T23:06:06.425Z,14.10
2023-05-13T23:08:33.021Z,14.10
2023-05-13T23:10:59.630Z,14.10
2023-05-13T23:13:26.284Z,14.20
2023-05-13T23:15:52.953Z,14.20
2023-05-13T23:18:19.531Z,14.20
2023-05-13T23:20:53.266Z,14.10
2023-05-13T23:23:20.250Z,14.00
2023-05-13T23:25:47.751Z,14.00
2023-05-13T23:28:14.467Z,14.00
2023-05-13T23:30:41.505Z,14.00
2023-05-13T23:33:08.332Z,14.00
2023-05-13T23:35:35.354Z,14.00
2023-05-13T23:38:02.166Z,14.00
2023-05-13T23:40:28.795Z,13.90
2023-05-13T23:42:55.487Z,13.90
2023-05-13T23:45:22.114Z,13.90
2023-05-13T23:47:49.865Z,13.90
2023-05-13T23:50:16.448Z,13.90
2023-05-13T23:52:43.081Z,13.90
2023-05-13T23:55:09.926Z,13.90
2023-05-13T23:57:36.526Z,13.90
